»·PEaware :: N752A KBUR-L70

N752A :: KBUR-L70

FLIGHT INFORMATION

Flight Status: Arrived
Operator: Privately registered:
United States
More flights under this callsign
Pilot: Rene D. (20905)
Aircraft: CESSNA 172 SKYHAWK
(C172)
More flights by this aircraft type
Origin: KBUR Bob Hope-Burbank
United States
Destination: L70 Agua Dulce
United States
More flights between these airports :: More routes between these airports
Route: LANGE
File this flight plan on PilotEdge
Remarks:
Altitude:
(Current/Filed)
6,000ft
Speed:
(Current/Filed)
115kts
Departed: 26-Oct-18 11:19 AM
Arrived: 26-Oct-18 11:35 AM
Distance/Time
Traveled:
18nm/0:16
Distance/Time
To Go:
Arrived

Flight Plot

Page will automatically refresh every two minutes.

Flight plan parsing failed; only flown route is shown


Map Options




Map Legend


Flown Route
Filed Route
Departure Airport
Arrival Airport
Navaid (VOR, NDB)
Fix

Horizontal Profiles

Position Reports

Time Latitude Longitude Heading Altitude Ground
Speed
26-Oct-18 10:26 34.210745 -118.357944 257 760ft 0kts
26-Oct-18 10:27 34.210745 -118.357944 257 760ft 0kts
26-Oct-18 10:28 34.210745 -118.357944 257 760ft 0kts
26-Oct-18 10:29 34.210745 -118.357944 257 760ft 0kts
26-Oct-18 10:30 34.210745 -118.357944 257 760ft 0kts
26-Oct-18 10:31 34.210745 -118.357944 257 760ft 0kts
26-Oct-18 10:32 34.210745 -118.357944 257 760ft 0kts
26-Oct-18 10:33 34.210745 -118.357944 257 760ft 0kts
26-Oct-18 10:34 34.210745 -118.357944 257 760ft 0kts
26-Oct-18 10:35 34.210745 -118.357944 257 760ft 0kts
26-Oct-18 10:36 34.210745 -118.357944 257 760ft 0kts
26-Oct-18 10:37 34.210745 -118.357944 257 760ft 0kts
26-Oct-18 10:38 34.210745 -118.357944 257 760ft 0kts
26-Oct-18 10:39 34.210745 -118.357944 257 760ft 0kts
26-Oct-18 10:40 34.210745 -118.357944 257 760ft 0kts
26-Oct-18 10:41 34.210745 -118.357944 257 760ft 0kts
26-Oct-18 10:42 34.210745 -118.357944 257 760ft 0kts
26-Oct-18 10:43 34.210745 -118.357944 257 760ft 0kts
26-Oct-18 10:44 34.210745 -118.357944 257 760ft 0kts
26-Oct-18 10:45 34.210745 -118.357944 257 760ft 0kts
26-Oct-18 10:46 34.210745 -118.357944 257 760ft 0kts
26-Oct-18 10:47 34.210745 -118.357944 257 760ft 0kts
26-Oct-18 10:48 34.210745 -118.357944 257 760ft 0kts
26-Oct-18 10:49 34.210745 -118.357944 257 760ft 0kts
26-Oct-18 10:50 34.210745 -118.357944 257 760ft 0kts
26-Oct-18 10:51 34.210745 -118.357944 257 760ft 0kts
26-Oct-18 10:52 34.210745 -118.357944 257 760ft 0kts
26-Oct-18 10:53 34.210745 -118.357944 257 760ft 0kts
26-Oct-18 10:54 34.210745 -118.357944 257 760ft 0kts
26-Oct-18 10:55 34.210745 -118.357944 257 760ft 0kts
26-Oct-18 10:56 34.210745 -118.357944 257 760ft 0kts
26-Oct-18 10:57 34.210745 -118.357944 257 760ft 0kts
26-Oct-18 10:58 34.210745 -118.357944 257 760ft 0kts
26-Oct-18 10:59 34.210745 -118.357944 257 760ft 0kts
26-Oct-18 11:00 34.196331 -118.367556 358 724ft 0kts
26-Oct-18 11:01 34.196331 -118.367556 358 724ft 0kts
26-Oct-18 11:02 34.196331 -118.367556 358 724ft 0kts
26-Oct-18 11:03 34.196331 -118.367556 358 724ft 0kts
26-Oct-18 11:04 34.196331 -118.367556 358 724ft 0kts
26-Oct-18 11:05 34.196331 -118.367556 358 724ft 0kts
26-Oct-18 11:06 34.196331 -118.367556 358 724ft 0kts
26-Oct-18 11:07 34.196331 -118.367556 358 724ft 0kts
26-Oct-18 11:08 34.196331 -118.367556 358 724ft 0kts
26-Oct-18 11:09 34.196331 -118.367556 358 724ft 0kts
26-Oct-18 11:10 34.196331 -118.367556 358 724ft 0kts
26-Oct-18 11:11 34.196331 -118.367556 358 724ft 0kts
26-Oct-18 11:12 34.196331 -118.367556 358 724ft 0kts
26-Oct-18 11:13 34.196331 -118.367556 358 724ft 0kts
26-Oct-18 11:14 34.196331 -118.367556 358 724ft 0kts
26-Oct-18 11:15 34.196331 -118.367556 358 724ft 0kts
26-Oct-18 11:16 34.196331 -118.367556 358 724ft 0kts
26-Oct-18 11:17 34.196826 -118.368233 269 726ft 8kts
26-Oct-18 11:18 34.197132 -118.369058 342 727ft 0kts
26-Oct-18 11:19 34.197132 -118.369058 342 727ft 0kts
26-Oct-18 11:20 34.197897 -118.368029 91 728ft 0kts
26-Oct-18 11:21 34.197825 -118.351475 87 1144ft 72kts
26-Oct-18 11:22 34.195740 -118.328095 96 1992ft 66kts
26-Oct-18 11:23 34.194614 -118.304715 88 2662ft 91kts
26-Oct-18 11:24 34.199689 -118.285061 9 3339ft 92kts
26-Oct-18 11:25 34.228534 -118.296421 329 3803ft 114kts
26-Oct-18 11:26 34.251065 -118.312946 324 4167ft 115kts
26-Oct-18 11:27 34.273533 -118.337792 327 4638ft 103kts
26-Oct-18 11:28 34.297599 -118.356712 324 5003ft 105kts
26-Oct-18 11:29 34.316228 -118.363494 0 5148ft 109kts
26-Oct-18 11:30 34.335068 -118.362921 359 5320ft 110kts
26-Oct-18 11:31 34.365778 -118.364089 357 5443ft 114kts
26-Oct-18 11:32 34.388828 -118.364337 2 5510ft 113kts
26-Oct-18 11:33 34.422693 -118.361899 2 5072ft 132kts
26-Oct-18 11:34 34.459693 -118.359801 13 3982ft 141kts
26-Oct-18 11:35 34.485500 -118.339841 43 3147ft 85kts
26-Oct-18 11:36 34.497099 -118.323541 51 2701ft 61kts
26-Oct-18 11:37 34.504102 -118.312181 52 2621ft 27kts
26-Oct-18 11:38 34.504793 -118.309991 329 2639ft 0kts

Navigation Log

Ident Type
Flight plan parsing failed, navigation log unavailable